KSEP/SEP METAR and TAF weather

Enter ICAO airport designator
Station Type Date Time Source
KSEP METAR 2020/05/30 05:15 UTC NOAA

KSEP 300515Z AUTO 00000KT 10SM CLR 22/13 A3019 RMK AO2 T02200129


Station Type Date Time Source
KSEP Decoded METAR 2020/05/30 05:15 UTC NOAA

Stephenville, Clark Field Municipal Airport, TX, United States (KSEP) 32-13N 098-11W 402M
May 30, 2020 - 01:15 AM EDT / 2020.05.30 0515 UTC
Wind: Calm:0
Visibility: 10 mile(s):0
Sky conditions: clear
Temperature: 71.6 F (22.0 C)
Dew Point: 55.2 F (12.9 C)
Relative Humidity: 56%
Pressure (altimeter): 30.19 in. Hg (1022 hPa)
ob: KSEP 300515Z AUTO 00000KT 10SM CLR 22/13 A3019 RMK AO2 T02200129
cycle: 5

Station Type Date Time Source
KSEP TAF UTC NOAA

Error!

Example: see airport list